sensor_id;sensor_type;location;lat;lon;timestamp;P1;durP1;ratioP1;P2;durP2;ratioP2
27796;SDS011;15177;50.844;4.412;2023-09-07T00:00:47;12.43;;;6.40;;
27796;SDS011;15177;50.844;4.412;2023-09-07T00:03:14;9.10;;;6.63;;
27796;SDS011;15177;50.844;4.412;2023-09-07T00:05:40;9.70;;;6.65;;
27796;SDS011;15177;50.844;4.412;2023-09-07T00:08:06;12.13;;;6.50;;
27796;SDS011;15177;50.844;4.412;2023-09-07T00:10:32;8.60;;;6.47;;
27796;SDS011;15177;50.844;4.412;2023-09-07T00:13:00;12.85;;;6.55;;
27796;SDS011;15177;50.844;4.412;2023-09-07T00:15:27;11.65;;;6.70;;
27796;SDS011;15177;50.844;4.412;2023-09-07T00:17:53;12.75;;;6.75;;
27796;SDS011;15177;50.844;4.412;2023-09-07T00:20:20;9.60;;;6.03;;
27796;SDS011;15177;50.844;4.412;2023-09-07T00:22:46;14.00;;;6.57;;
27796;SDS011;15177;50.844;4.412;2023-09-07T00:25:12;14.75;;;7.30;;
27796;SDS011;15177;50.844;4.412;2023-09-07T00:27:38;11.57;;;6.70;;
27796;SDS011;15177;50.844;4.412;2023-09-07T00:30:04;11.07;;;6.85;;
27796;SDS011;15177;50.844;4.412;2023-09-07T00:32:37;18.38;;;6.30;;
27796;SDS011;15177;50.844;4.412;2023-09-07T00:35:04;10.75;;;6.65;;
27796;SDS011;15177;50.844;4.412;2023-09-07T00:37:31;12.75;;;6.78;;
27796;SDS011;15177;50.844;4.412;2023-09-07T00:39:57;12.73;;;6.80;;
27796;SDS011;15177;50.844;4.412;2023-09-07T00:42:23;11.05;;;6.53;;
27796;SDS011;15177;50.844;4.412;2023-09-07T00:44:48;9.98;;;6.57;;
27796;SDS011;15177;50.844;4.412;2023-09-07T00:47:15;11.18;;;6.80;;
27796;SDS011;15177;50.844;4.412;2023-09-07T00:49:41;14.05;;;6.03;;
27796;SDS011;15177;50.844;4.412;2023-09-07T00:52:07;9.80;;;6.60;;
27796;SDS011;15177;50.844;4.412;2023-09-07T00:54:34;11.65;;;6.63;;
27796;SDS011;15177;50.844;4.412;2023-09-07T00:57:03;15.55;;;5.78;;
27796;SDS011;15177;50.844;4.412;2023-09-07T00:59:30;14.48;;;5.80;;
27796;SDS011;15177;50.844;4.412;2023-09-07T01:01:57;8.38;;;5.13;;
27796;SDS011;15177;50.844;4.412;2023-09-07T01:04:23;9.98;;;5.57;;
27796;SDS011;15177;50.844;4.412;2023-09-07T01:06:52;8.82;;;5.57;;
27796;SDS011;15177;50.844;4.412;2023-09-07T01:09:25;9.55;;;5.20;;
27796;SDS011;15177;50.844;4.412;2023-09-07T01:11:55;8.82;;;5.40;;
27796;SDS011;15177;50.844;4.412;2023-09-07T01:14:21;8.07;;;5.50;;
27796;SDS011;15177;50.844;4.412;2023-09-07T01:16:47;7.30;;;4.97;;
27796;SDS011;15177;50.844;4.412;2023-09-07T01:19:14;7.90;;;5.95;;
27796;SDS011;15177;50.844;4.412;2023-09-07T01:21:40;9.13;;;5.72;;
27796;SDS011;15177;50.844;4.412;2023-09-07T01:24:06;8.98;;;4.88;;
27796;SDS011;15177;50.844;4.412;2023-09-07T01:26:34;27.33;;;5.50;;
27796;SDS011;15177;50.844;4.412;2023-09-07T01:29:03;7.38;;;4.75;;
27796;SDS011;15177;50.844;4.412;2023-09-07T01:31:36;10.15;;;5.20;;
27796;SDS011;15177;50.844;4.412;2023-09-07T01:34:03;10.63;;;5.55;;
27796;SDS011;15177;50.844;4.412;2023-09-07T01:36:29;7.43;;;5.40;;
27796;SDS011;15177;50.844;4.412;2023-09-07T01:38:55;11.10;;;5.80;;
27796;SDS011;15177;50.844;4.412;2023-09-07T01:41:21;7.43;;;4.95;;
27796;SDS011;15177;50.844;4.412;2023-09-07T01:43:46;8.32;;;5.53;;
27796;SDS011;15177;50.844;4.412;2023-09-07T01:46:12;8.98;;;5.72;;
27796;SDS011;15177;50.844;4.412;2023-09-07T01:48:38;8.45;;;4.57;;
27796;SDS011;15177;50.844;4.412;2023-09-07T01:51:03;10.98;;;5.38;;
27796;SDS011;15177;50.844;4.412;2023-09-07T01:53:29;8.50;;;5.10;;
27796;SDS011;15177;50.844;4.412;2023-09-07T01:55:55;11.80;;;5.55;;
27796;SDS011;15177;50.844;4.412;2023-09-07T01:58:21;7.45;;;5.28;;
27796;SDS011;15177;50.844;4.412;2023-09-07T02:00:48;8.80;;;5.20;;
27796;SDS011;15177;50.844;4.412;2023-09-07T02:03:14;8.88;;;4.72;;
27796;SDS011;15177;50.844;4.412;2023-09-07T02:05:40;10.13;;;5.93;;
27796;SDS011;15177;50.844;4.412;2023-09-07T02:08:06;8.43;;;4.90;;
27796;SDS011;15177;50.844;4.412;2023-09-07T02:10:34;9.55;;;5.40;;
27796;SDS011;15177;50.844;4.412;2023-09-07T02:12:59;8.45;;;5.05;;
27796;SDS011;15177;50.844;4.412;2023-09-07T02:15:25;11.15;;;5.35;;
27796;SDS011;15177;50.844;4.412;2023-09-07T02:17:51;9.77;;;6.10;;
27796;SDS011;15177;50.844;4.412;2023-09-07T02:20:17;11.32;;;6.32;;
27796;SDS011;15177;50.844;4.412;2023-09-07T02:22:45;7.80;;;5.45;;
27796;SDS011;15177;50.844;4.412;2023-09-07T02:25:10;8.43;;;5.50;;
27796;SDS011;15177;50.844;4.412;2023-09-07T02:27:36;15.95;;;5.85;;
27796;SDS011;15177;50.844;4.412;2023-09-07T02:30:02;11.88;;;6.10;;
27796;SDS011;15177;50.844;4.412;2023-09-07T02:32:29;10.73;;;5.25;;
27796;SDS011;15177;50.844;4.412;2023-09-07T02:34:55;9.98;;;6.15;;
27796;SDS011;15177;50.844;4.412;2023-09-07T02:37:20;9.27;;;5.90;;
27796;SDS011;15177;50.844;4.412;2023-09-07T02:39:46;11.48;;;6.20;;
27796;SDS011;15177;50.844;4.412;2023-09-07T02:42:11;11.82;;;5.93;;
27796;SDS011;15177;50.844;4.412;2023-09-07T02:44:37;9.27;;;5.18;;
27796;SDS011;15177;50.844;4.412;2023-09-07T02:47:03;12.63;;;6.57;;
27796;SDS011;15177;50.844;4.412;2023-09-07T02:49:29;7.40;;;5.25;;
27796;SDS011;15177;50.844;4.412;2023-09-07T02:51:54;10.98;;;5.78;;
27796;SDS011;15177;50.844;4.412;2023-09-07T02:54:20;8.90;;;5.65;;
27796;SDS011;15177;50.844;4.412;2023-09-07T02:56:46;8.07;;;5.72;;
27796;SDS011;15177;50.844;4.412;2023-09-07T02:59:11;8.35;;;6.43;;
27796;SDS011;15177;50.844;4.412;2023-09-07T03:01:38;12.38;;;6.25;;
27796;SDS011;15177;50.844;4.412;2023-09-07T03:04:04;8.38;;;6.28;;
27796;SDS011;15177;50.844;4.412;2023-09-07T03:06:31;9.60;;;6.43;;
27796;SDS011;15177;50.844;4.412;2023-09-07T03:08:56;11.00;;;6.20;;
27796;SDS011;15177;50.844;4.412;2023-09-07T03:11:22;9.57;;;5.93;;
27796;SDS011;15177;50.844;4.412;2023-09-07T03:13:48;14.40;;;5.80;;
27796;SDS011;15177;50.844;4.412;2023-09-07T03:16:14;14.05;;;6.43;;
27796;SDS011;15177;50.844;4.412;2023-09-07T03:18:39;10.93;;;6.50;;
27796;SDS011;15177;50.844;4.412;2023-09-07T03:21:05;15.27;;;6.78;;
27796;SDS011;15177;50.844;4.412;2023-09-07T03:23:31;9.57;;;5.55;;
27796;SDS011;15177;50.844;4.412;2023-09-07T03:25:58;11.18;;;6.40;;
27796;SDS011;15177;50.844;4.412;2023-09-07T03:28:25;8.07;;;6.70;;
27796;SDS011;15177;50.844;4.412;2023-09-07T03:30:53;15.18;;;6.45;;
27796;SDS011;15177;50.844;4.412;2023-09-07T03:33:19;10.23;;;6.25;;
27796;SDS011;15177;50.844;4.412;2023-09-07T03:35:45;13.30;;;5.90;;
27796;SDS011;15177;50.844;4.412;2023-09-07T03:38:11;8.55;;;5.57;;
27796;SDS011;15177;50.844;4.412;2023-09-07T03:40:37;8.73;;;5.95;;
27796;SDS011;15177;50.844;4.412;2023-09-07T03:43:02;10.98;;;5.90;;
27796;SDS011;15177;50.844;4.412;2023-09-07T03:45:28;11.85;;;6.15;;
27796;SDS011;15177;50.844;4.412;2023-09-07T03:47:55;11.20;;;6.03;;
27796;SDS011;15177;50.844;4.412;2023-09-07T03:50:21;10.00;;;6.07;;
27796;SDS011;15177;50.844;4.412;2023-09-07T03:52:47;9.60;;;5.80;;
27796;SDS011;15177;50.844;4.412;2023-09-07T03:55:13;10.50;;;6.05;;
27796;SDS011;15177;50.844;4.412;2023-09-07T03:57:39;17.38;;;6.35;;
27796;SDS011;15177;50.844;4.412;2023-09-07T04:00:05;8.80;;;6.20;;
27796;SDS011;15177;50.844;4.412;2023-09-07T04:02:33;9.80;;;6.72;;
27796;SDS011;15177;50.844;4.412;2023-09-07T04:04:58;9.93;;;6.10;;
27796;SDS011;15177;50.844;4.412;2023-09-07T04:07:26;12.27;;;6.32;;
27796;SDS011;15177;50.844;4.412;2023-09-07T04:09:52;10.63;;;6.38;;
27796;SDS011;15177;50.844;4.412;2023-09-07T04:12:18;11.90;;;6.70;;
27796;SDS011;15177;50.844;4.412;2023-09-07T04:14:43;9.38;;;5.88;;
27796;SDS011;15177;50.844;4.412;2023-09-07T04:17:10;13.68;;;6.80;;
27796;SDS011;15177;50.844;4.412;2023-09-07T04:19:36;14.32;;;6.75;;
27796;SDS011;15177;50.844;4.412;2023-09-07T04:22:02;11.18;;;6.15;;
27796;SDS011;15177;50.844;4.412;2023-09-07T04:24:27;10.57;;;7.07;;
27796;SDS011;15177;50.844;4.412;2023-09-07T04:26:53;10.35;;;6.95;;
27796;SDS011;15177;50.844;4.412;2023-09-07T04:29:23;12.15;;;7.32;;
27796;SDS011;15177;50.844;4.412;2023-09-07T04:31:49;14.57;;;8.68;;
27796;SDS011;15177;50.844;4.412;2023-09-07T04:34:14;10.55;;;7.00;;
27796;SDS011;15177;50.844;4.412;2023-09-07T04:36:40;12.70;;;7.53;;
27796;SDS011;15177;50.844;4.412;2023-09-07T04:39:06;15.27;;;7.45;;
27796;SDS011;15177;50.844;4.412;2023-09-07T04:41:31;11.75;;;7.80;;
27796;SDS011;15177;50.844;4.412;2023-09-07T04:43:57;10.05;;;7.43;;
27796;SDS011;15177;50.844;4.412;2023-09-07T04:46:23;14.75;;;7.72;;
27796;SDS011;15177;50.844;4.412;2023-09-07T04:48:48;13.23;;;8.48;;
27796;SDS011;15177;50.844;4.412;2023-09-07T04:51:14;11.90;;;7.25;;
27796;SDS011;15177;50.844;4.412;2023-09-07T04:53:40;15.35;;;8.13;;
27796;SDS011;15177;50.844;4.412;2023-09-07T04:56:06;11.65;;;8.50;;
27796;SDS011;15177;50.844;4.412;2023-09-07T04:58:33;14.50;;;8.57;;
27796;SDS011;15177;50.844;4.412;2023-09-07T05:01:06;11.52;;;8.13;;
27796;SDS011;15177;50.844;4.412;2023-09-07T05:03:34;13.95;;;7.57;;
27796;SDS011;15177;50.844;4.412;2023-09-07T05:06:01;14.45;;;8.10;;
27796;SDS011;15177;50.844;4.412;2023-09-07T05:08:28;11.77;;;8.13;;
27796;SDS011;15177;50.844;4.412;2023-09-07T05:10:54;13.35;;;7.93;;
27796;SDS011;15177;50.844;4.412;2023-09-07T05:13:30;12.55;;;8.13;;
27796;SDS011;15177;50.844;4.412;2023-09-07T05:15:57;13.90;;;7.80;;
27796;SDS011;15177;50.844;4.412;2023-09-07T05:18:24;15.52;;;8.20;;
27796;SDS011;15177;50.844;4.412;2023-09-07T05:20:50;14.57;;;8.00;;
27796;SDS011;15177;50.844;4.412;2023-09-07T05:23:16;14.63;;;8.85;;
27796;SDS011;15177;50.844;4.412;2023-09-07T05:28:15;21.52;;;8.15;;
27796;SDS011;15177;50.844;4.412;2023-09-07T05:30:42;13.07;;;8.30;;
27796;SDS011;15177;50.844;4.412;2023-09-07T05:33:11;15.60;;;9.38;;
27796;SDS011;15177;50.844;4.412;2023-09-07T05:35:38;9.98;;;8.00;;
27796;SDS011;15177;50.844;4.412;2023-09-07T05:38:04;12.55;;;8.10;;
27796;SDS011;15177;50.844;4.412;2023-09-07T05:40:33;13.48;;;8.00;;
27796;SDS011;15177;50.844;4.412;2023-09-07T05:43:03;13.57;;;9.02;;
27796;SDS011;15177;50.844;4.412;2023-09-07T05:45:39;12.63;;;8.05;;
27796;SDS011;15177;50.844;4.412;2023-09-07T05:48:05;18.60;;;8.75;;
27796;SDS011;15177;50.844;4.412;2023-09-07T05:50:35;13.55;;;8.35;;
27796;SDS011;15177;50.844;4.412;2023-09-07T05:53:02;12.73;;;8.25;;
27796;SDS011;15177;50.844;4.412;2023-09-07T05:55:29;18.35;;;8.45;;
27796;SDS011;15177;50.844;4.412;2023-09-07T05:57:55;14.48;;;8.40;;
27796;SDS011;15177;50.844;4.412;2023-09-07T06:00:21;15.75;;;8.35;;
27796;SDS011;15177;50.844;4.412;2023-09-07T06:02:48;12.45;;;8.15;;
27796;SDS011;15177;50.844;4.412;2023-09-07T06:05:14;12.40;;;8.07;;
27796;SDS011;15177;50.844;4.412;2023-09-07T06:07:41;13.65;;;8.43;;
27796;SDS011;15177;50.844;4.412;2023-09-07T06:10:07;16.55;;;8.32;;
27796;SDS011;15177;50.844;4.412;2023-09-07T06:12:35;14.65;;;8.38;;
27796;SDS011;15177;50.844;4.412;2023-09-07T06:15:01;15.80;;;7.60;;
27796;SDS011;15177;50.844;4.412;2023-09-07T06:17:28;14.43;;;8.18;;
27796;SDS011;15177;50.844;4.412;2023-09-07T06:19:54;16.83;;;8.20;;
27796;SDS011;15177;50.844;4.412;2023-09-07T06:22:19;18.60;;;7.68;;
27796;SDS011;15177;50.844;4.412;2023-09-07T06:24:45;22.30;;;7.65;;
27796;SDS011;15177;50.844;4.412;2023-09-07T06:27:11;18.23;;;7.18;;
27796;SDS011;15177;50.844;4.412;2023-09-07T06:29:36;14.10;;;6.95;;
27796;SDS011;15177;50.844;4.412;2023-09-07T06:32:02;11.55;;;7.10;;
27796;SDS011;15177;50.844;4.412;2023-09-07T06:34:28;10.93;;;6.63;;
27796;SDS011;15177;50.844;4.412;2023-09-07T06:36:54;14.02;;;7.28;;
27796;SDS011;15177;50.844;4.412;2023-09-07T06:39:20;15.05;;;6.65;;
27796;SDS011;15177;50.844;4.412;2023-09-07T06:41:46;19.92;;;6.40;;
27796;SDS011;15177;50.844;4.412;2023-09-07T06:44:12;10.77;;;5.85;;
27796;SDS011;15177;50.844;4.412;2023-09-07T06:46:39;13.77;;;6.30;;
27796;SDS011;15177;50.844;4.412;2023-09-07T06:49:04;9.25;;;5.90;;
27796;SDS011;15177;50.844;4.412;2023-09-07T06:51:30;9.75;;;6.55;;
27796;SDS011;15177;50.844;4.412;2023-09-07T06:53:57;9.15;;;6.22;;
27796;SDS011;15177;50.844;4.412;2023-09-07T06:56:22;12.32;;;5.85;;
27796;SDS011;15177;50.844;4.412;2023-09-07T06:58:49;9.98;;;6.18;;
27796;SDS011;15177;50.844;4.412;2023-09-07T07:01:14;8.90;;;5.50;;
27796;SDS011;15177;50.844;4.412;2023-09-07T07:03:41;8.70;;;5.68;;
27796;SDS011;15177;50.844;4.412;2023-09-07T07:06:07;11.05;;;5.35;;
27796;SDS011;15177;50.844;4.412;2023-09-07T07:08:33;7.18;;;5.63;;
27796;SDS011;15177;50.844;4.412;2023-09-07T07:10:59;10.52;;;5.75;;
27796;SDS011;15177;50.844;4.412;2023-09-07T07:13:25;7.13;;;5.63;;
27796;SDS011;15177;50.844;4.412;2023-09-07T07:15:51;7.10;;;5.13;;
27796;SDS011;15177;50.844;4.412;2023-09-07T07:18:17;8.57;;;4.75;;
27796;SDS011;15177;50.844;4.412;2023-09-07T07:20:43;9.93;;;5.38;;
27796;SDS011;15177;50.844;4.412;2023-09-07T07:23:09;9.65;;;5.35;;
27796;SDS011;15177;50.844;4.412;2023-09-07T07:25:37;6.82;;;5.20;;
27796;SDS011;15177;50.844;4.412;2023-09-07T07:28:04;8.38;;;4.85;;
27796;SDS011;15177;50.844;4.412;2023-09-07T07:30:37;6.43;;;5.30;;
27796;SDS011;15177;50.844;4.412;2023-09-07T07:33:06;11.18;;;4.82;;
27796;SDS011;15177;50.844;4.412;2023-09-07T07:35:33;9.30;;;5.57;;
27796;SDS011;15177;50.844;4.412;2023-09-07T07:38:03;9.32;;;4.85;;
27796;SDS011;15177;50.844;4.412;2023-09-07T07:40:32;10.38;;;4.90;;
27796;SDS011;15177;50.844;4.412;2023-09-07T07:42:58;19.90;;;5.22;;
27796;SDS011;15177;50.844;4.412;2023-09-07T07:45:24;8.20;;;4.85;;
27796;SDS011;15177;50.844;4.412;2023-09-07T07:47:50;10.38;;;4.88;;
27796;SDS011;15177;50.844;4.412;2023-09-07T07:50:19;7.63;;;4.80;;
27796;SDS011;15177;50.844;4.412;2023-09-07T07:52:47;7.13;;;4.70;;
27796;SDS011;15177;50.844;4.412;2023-09-07T07:55:12;9.38;;;4.15;;
27796;SDS011;15177;50.844;4.412;2023-09-07T07:57:38;8.30;;;4.43;;
27796;SDS011;15177;50.844;4.412;2023-09-07T08:00:04;7.65;;;4.70;;
27796;SDS011;15177;50.844;4.412;2023-09-07T08:02:31;9.88;;;4.65;;
27796;SDS011;15177;50.844;4.412;2023-09-07T08:04:57;8.05;;;4.30;;
27796;SDS011;15177;50.844;4.412;2023-09-07T08:07:26;6.97;;;5.05;;
27796;SDS011;15177;50.844;4.412;2023-09-07T08:09:52;7.70;;;4.75;;
27796;SDS011;15177;50.844;4.412;2023-09-07T08:12:18;6.28;;;4.55;;
27796;SDS011;15177;50.844;4.412;2023-09-07T08:14:44;8.45;;;4.53;;
27796;SDS011;15177;50.844;4.412;2023-09-07T08:17:13;8.88;;;4.53;;
27796;SDS011;15177;50.844;4.412;2023-09-07T08:19:39;7.95;;;4.13;;
27796;SDS011;15177;50.844;4.412;2023-09-07T08:22:04;8.73;;;4.40;;
27796;SDS011;15177;50.844;4.412;2023-09-07T08:24:32;6.28;;;4.32;;
27796;SDS011;15177;50.844;4.412;2023-09-07T08:26:58;8.57;;;4.40;;
27796;SDS011;15177;50.844;4.412;2023-09-07T08:29:25;7.32;;;4.05;;
27796;SDS011;15177;50.844;4.412;2023-09-07T08:31:55;5.38;;;4.30;;
27796;SDS011;15177;50.844;4.412;2023-09-07T08:34:22;6.07;;;3.50;;
27796;SDS011;15177;50.844;4.412;2023-09-07T08:36:48;6.95;;;3.90;;
27796;SDS011;15177;50.844;4.412;2023-09-07T08:39:15;5.68;;;4.30;;
27796;SDS011;15177;50.844;4.412;2023-09-07T08:41:42;7.57;;;4.38;;
27796;SDS011;15177;50.844;4.412;2023-09-07T08:44:14;4.35;;;3.88;;
27796;SDS011;15177;50.844;4.412;2023-09-07T08:46:48;7.95;;;4.60;;
27796;SDS011;15177;50.844;4.412;2023-09-07T08:49:15;6.50;;;4.07;;
27796;SDS011;15177;50.844;4.412;2023-09-07T08:51:44;6.90;;;3.75;;
27796;SDS011;15177;50.844;4.412;2023-09-07T08:54:10;7.55;;;3.83;;
27796;SDS011;15177;50.844;4.412;2023-09-07T08:56:37;7.07;;;4.00;;
27796;SDS011;15177;50.844;4.412;2023-09-07T08:59:03;5.18;;;3.70;;
27796;SDS011;15177;50.844;4.412;2023-09-07T09:01:32;5.38;;;3.80;;
27796;SDS011;15177;50.844;4.412;2023-09-07T09:03:58;10.05;;;4.43;;
27796;SDS011;15177;50.844;4.412;2023-09-07T09:06:24;12.02;;;4.07;;
27796;SDS011;15177;50.844;4.412;2023-09-07T09:08:51;9.13;;;4.25;;
27796;SDS011;15177;50.844;4.412;2023-09-07T09:11:21;4.88;;;3.55;;
27796;SDS011;15177;50.844;4.412;2023-09-07T09:13:47;8.70;;;4.10;;
27796;SDS011;15177;50.844;4.412;2023-09-07T09:16:14;11.70;;;4.25;;
27796;SDS011;15177;50.844;4.412;2023-09-07T09:18:53;17.23;;;5.95;;
27796;SDS011;15177;50.844;4.412;2023-09-07T09:21:25;7.22;;;4.13;;
27796;SDS011;15177;50.844;4.412;2023-09-07T09:23:53;6.95;;;4.15;;
27796;SDS011;15177;50.844;4.412;2023-09-07T09:26:20;9.20;;;4.35;;
27796;SDS011;15177;50.844;4.412;2023-09-07T09:28:46;6.47;;;3.50;;
27796;SDS011;15177;50.844;4.412;2023-09-07T09:31:14;6.70;;;4.05;;
27796;SDS011;15177;50.844;4.412;2023-09-07T09:33:40;8.38;;;4.07;;
27796;SDS011;15177;50.844;4.412;2023-09-07T09:36:07;4.57;;;4.13;;
27796;SDS011;15177;50.844;4.412;2023-09-07T09:38:35;9.23;;;4.00;;
27796;SDS011;15177;50.844;4.412;2023-09-07T09:41:01;8.23;;;3.75;;
27796;SDS011;15177;50.844;4.412;2023-09-07T09:43:30;4.80;;;3.72;;
27796;SDS011;15177;50.844;4.412;2023-09-07T09:45:56;9.98;;;3.80;;
27796;SDS011;15177;50.844;4.412;2023-09-07T09:48:24;7.40;;;3.80;;
27796;SDS011;15177;50.844;4.412;2023-09-07T09:50:52;6.03;;;4.03;;
27796;SDS011;15177;50.844;4.412;2023-09-07T09:53:19;8.45;;;4.15;;
27796;SDS011;15177;50.844;4.412;2023-09-07T09:55:49;6.55;;;4.05;;
27796;SDS011;15177;50.844;4.412;2023-09-07T09:58:18;11.57;;;4.40;;
27796;SDS011;15177;50.844;4.412;2023-09-07T10:00:44;7.47;;;3.50;;
27796;SDS011;15177;50.844;4.412;2023-09-07T10:03:24;5.57;;;4.00;;
27796;SDS011;15177;50.844;4.412;2023-09-07T10:05:55;7.80;;;3.78;;
27796;SDS011;15177;50.844;4.412;2023-09-07T10:08:21;5.95;;;3.83;;
27796;SDS011;15177;50.844;4.412;2023-09-07T10:10:48;7.97;;;4.20;;
27796;SDS011;15177;50.844;4.412;2023-09-07T10:13:31;9.95;;;4.20;;
27796;SDS011;15177;50.844;4.412;2023-09-07T10:16:02;6.80;;;3.85;;
27796;SDS011;15177;50.844;4.412;2023-09-07T10:18:36;10.55;;;4.43;;
27796;SDS011;15177;50.844;4.412;2023-09-07T10:21:03;5.65;;;4.32;;
27796;SDS011;15177;50.844;4.412;2023-09-07T10:23:36;8.05;;;4.45;;
27796;SDS011;15177;50.844;4.412;2023-09-07T10:26:10;8.88;;;4.03;;
27796;SDS011;15177;50.844;4.412;2023-09-07T10:28:41;7.05;;;3.95;;
27796;SDS011;15177;50.844;4.412;2023-09-07T10:31:15;7.57;;;4.32;;
27796;SDS011;15177;50.844;4.412;2023-09-07T10:33:45;6.60;;;4.10;;
27796;SDS011;15177;50.844;4.412;2023-09-07T10:36:21;5.07;;;3.80;;
27796;SDS011;15177;50.844;4.412;2023-09-07T10:38:48;5.75;;;4.07;;
27796;SDS011;15177;50.844;4.412;2023-09-07T10:41:14;6.75;;;3.88;;
27796;SDS011;15177;50.844;4.412;2023-09-07T10:44:02;6.82;;;4.18;;
27796;SDS011;15177;50.844;4.412;2023-09-07T10:46:30;5.63;;;4.22;;
27796;SDS011;15177;50.844;4.412;2023-09-07T10:48:56;9.55;;;6.03;;
27796;SDS011;15177;50.844;4.412;2023-09-07T10:51:22;6.95;;;4.20;;
27796;SDS011;15177;50.844;4.412;2023-09-07T10:53:48;6.65;;;4.38;;
27796;SDS011;15177;50.844;4.412;2023-09-07T10:56:14;6.57;;;3.75;;
27796;SDS011;15177;50.844;4.412;2023-09-07T10:58:40;5.05;;;3.78;;
27796;SDS011;15177;50.844;4.412;2023-09-07T11:01:07;5.30;;;3.83;;
27796;SDS011;15177;50.844;4.412;2023-09-07T11:03:34;7.10;;;3.75;;
27796;SDS011;15177;50.844;4.412;2023-09-07T11:06:05;6.72;;;3.83;;
27796;SDS011;15177;50.844;4.412;2023-09-07T11:08:34;6.05;;;4.28;;
27796;SDS011;15177;50.844;4.412;2023-09-07T11:11:01;6.80;;;3.88;;
27796;SDS011;15177;50.844;4.412;2023-09-07T11:13:27;4.95;;;3.72;;
27796;SDS011;15177;50.844;4.412;2023-09-07T11:15:54;7.15;;;4.03;;
27796;SDS011;15177;50.844;4.412;2023-09-07T11:18:24;6.85;;;4.07;;
27796;SDS011;15177;50.844;4.412;2023-09-07T11:20:51;7.47;;;3.60;;
27796;SDS011;15177;50.844;4.412;2023-09-07T11:23:18;7.85;;;4.50;;
27796;SDS011;15177;50.844;4.412;2023-09-07T11:25:46;8.10;;;4.07;;
27796;SDS011;15177;50.844;4.412;2023-09-07T11:28:15;7.55;;;3.53;;
27796;SDS011;15177;50.844;4.412;2023-09-07T11:30:52;4.43;;;3.55;;
27796;SDS011;15177;50.844;4.412;2023-09-07T11:33:19;4.10;;;3.70;;
27796;SDS011;15177;50.844;4.412;2023-09-07T11:35:46;8.52;;;3.70;;
27796;SDS011;15177;50.844;4.412;2023-09-07T11:38:16;5.07;;;3.55;;
27796;SDS011;15177;50.844;4.412;2023-09-07T11:40:42;4.10;;;3.17;;
27796;SDS011;15177;50.844;4.412;2023-09-07T11:43:10;5.25;;;3.63;;
27796;SDS011;15177;50.844;4.412;2023-09-07T11:45:37;5.00;;;3.30;;
27796;SDS011;15177;50.844;4.412;2023-09-07T11:48:04;4.70;;;3.15;;
27796;SDS011;15177;50.844;4.412;2023-09-07T11:50:30;8.52;;;4.28;;
27796;SDS011;15177;50.844;4.412;2023-09-07T11:52:55;4.97;;;3.65;;
27796;SDS011;15177;50.844;4.412;2023-09-07T11:55:21;5.40;;;3.42;;
27796;SDS011;15177;50.844;4.412;2023-09-07T11:57:47;6.15;;;3.20;;
27796;SDS011;15177;50.844;4.412;2023-09-07T12:00:13;7.00;;;3.72;;
27796;SDS011;15177;50.844;4.412;2023-09-07T12:02:40;7.18;;;3.38;;
27796;SDS011;15177;50.844;4.412;2023-09-07T12:05:06;5.07;;;3.58;;
27796;SDS011;15177;50.844;4.412;2023-09-07T12:07:39;9.40;;;3.40;;
27796;SDS011;15177;50.844;4.412;2023-09-07T12:10:05;7.75;;;3.60;;
27796;SDS011;15177;50.844;4.412;2023-09-07T12:12:36;5.25;;;3.40;;
27796;SDS011;15177;50.844;4.412;2023-09-07T12:15:02;7.40;;;4.63;;
27796;SDS011;15177;50.844;4.412;2023-09-07T12:17:29;6.28;;;3.47;;
27796;SDS011;15177;50.844;4.412;2023-09-07T12:19:55;5.00;;;3.78;;
27796;SDS011;15177;50.844;4.412;2023-09-07T12:22:21;7.60;;;3.72;;
27796;SDS011;15177;50.844;4.412;2023-09-07T12:24:47;7.35;;;3.67;;
27796;SDS011;15177;50.844;4.412;2023-09-07T12:27:13;6.80;;;3.75;;
27796;SDS011;15177;50.844;4.412;2023-09-07T12:29:39;12.30;;;3.92;;
27796;SDS011;15177;50.844;4.412;2023-09-07T12:32:05;7.03;;;3.80;;
27796;SDS011;15177;50.844;4.412;2023-09-07T12:34:30;6.97;;;4.03;;
27796;SDS011;15177;50.844;4.412;2023-09-07T12:36:56;7.45;;;4.05;;
27796;SDS011;15177;50.844;4.412;2023-09-07T12:39:22;6.75;;;3.25;;
27796;SDS011;15177;50.844;4.412;2023-09-07T12:41:47;4.70;;;3.28;;
27796;SDS011;15177;50.844;4.412;2023-09-07T12:44:13;7.45;;;4.18;;
27796;SDS011;15177;50.844;4.412;2023-09-07T12:46:39;6.70;;;4.05;;
27796;SDS011;15177;50.844;4.412;2023-09-07T12:49:05;7.10;;;4.07;;
27796;SDS011;15177;50.844;4.412;2023-09-07T12:51:31;10.60;;;4.30;;
27796;SDS011;15177;50.844;4.412;2023-09-07T12:53:57;6.05;;;3.70;;
27796;SDS011;15177;50.844;4.412;2023-09-07T12:56:23;5.38;;;3.85;;
27796;SDS011;15177;50.844;4.412;2023-09-07T12:58:49;6.35;;;4.03;;
27796;SDS011;15177;50.844;4.412;2023-09-07T13:01:17;9.07;;;4.32;;
27796;SDS011;15177;50.844;4.412;2023-09-07T13:03:43;8.68;;;4.90;;
27796;SDS011;15177;50.844;4.412;2023-09-07T13:06:09;7.53;;;4.55;;
27796;SDS011;15177;50.844;4.412;2023-09-07T13:08:35;5.15;;;3.67;;
27796;SDS011;15177;50.844;4.412;2023-09-07T13:11:01;8.68;;;4.40;;
27796;SDS011;15177;50.844;4.412;2023-09-07T13:13:27;10.30;;;4.95;;
27796;SDS011;15177;50.844;4.412;2023-09-07T13:15:57;7.80;;;3.90;;
27796;SDS011;15177;50.844;4.412;2023-09-07T13:18:23;6.82;;;3.60;;
27796;SDS011;15177;50.844;4.412;2023-09-07T13:20:50;6.43;;;3.78;;
27796;SDS011;15177;50.844;4.412;2023-09-07T13:23:19;10.85;;;3.75;;
27796;SDS011;15177;50.844;4.412;2023-09-07T13:25:44;6.07;;;3.65;;
27796;SDS011;15177;50.844;4.412;2023-09-07T13:28:11;6.93;;;4.57;;
27796;SDS011;15177;50.844;4.412;2023-09-07T13:30:37;7.00;;;3.78;;
27796;SDS011;15177;50.844;4.412;2023-09-07T13:33:02;7.22;;;4.25;;
27796;SDS011;15177;50.844;4.412;2023-09-07T13:35:28;7.95;;;4.28;;
27796;SDS011;15177;50.844;4.412;2023-09-07T13:37:54;4.78;;;3.88;;
27796;SDS011;15177;50.844;4.412;2023-09-07T13:40:20;6.80;;;4.05;;
27796;SDS011;15177;50.844;4.412;2023-09-07T13:42:49;9.18;;;3.63;;
27796;SDS011;15177;50.844;4.412;2023-09-07T13:45:14;6.47;;;3.60;;
27796;SDS011;15177;50.844;4.412;2023-09-07T13:47:40;8.27;;;4.43;;
27796;SDS011;15177;50.844;4.412;2023-09-07T13:50:06;6.07;;;4.00;;
27796;SDS011;15177;50.844;4.412;2023-09-07T13:52:32;8.00;;;3.80;;
27796;SDS011;15177;50.844;4.412;2023-09-07T13:54:57;8.88;;;4.03;;
27796;SDS011;15177;50.844;4.412;2023-09-07T13:57:23;4.80;;;4.03;;
27796;SDS011;15177;50.844;4.412;2023-09-07T13:59:49;9.18;;;3.85;;
27796;SDS011;15177;50.844;4.412;2023-09-07T14:02:15;6.97;;;3.80;;
27796;SDS011;15177;50.844;4.412;2023-09-07T14:04:40;4.88;;;3.45;;
27796;SDS011;15177;50.844;4.412;2023-09-07T14:07:06;6.53;;;3.58;;
27796;SDS011;15177;50.844;4.412;2023-09-07T14:09:32;6.25;;;3.80;;
27796;SDS011;15177;50.844;4.412;2023-09-07T14:11:58;9.40;;;3.85;;
27796;SDS011;15177;50.844;4.412;2023-09-07T14:14:24;7.28;;;3.22;;
27796;SDS011;15177;50.844;4.412;2023-09-07T14:16:50;5.90;;;3.78;;
27796;SDS011;15177;50.844;4.412;2023-09-07T14:19:20;7.78;;;4.20;;
27796;SDS011;15177;50.844;4.412;2023-09-07T14:21:45;7.22;;;3.30;;
27796;SDS011;15177;50.844;4.412;2023-09-07T14:24:12;8.02;;;4.13;;
27796;SDS011;15177;50.844;4.412;2023-09-07T14:26:38;9.27;;;3.78;;
27796;SDS011;15177;50.844;4.412;2023-09-07T14:29:04;6.63;;;3.10;;
27796;SDS011;15177;50.844;4.412;2023-09-07T14:31:30;9.00;;;3.85;;
27796;SDS011;15177;50.844;4.412;2023-09-07T14:33:55;5.47;;;3.88;;
27796;SDS011;15177;50.844;4.412;2023-09-07T14:36:21;6.95;;;3.75;;
27796;SDS011;15177;50.844;4.412;2023-09-07T14:38:47;6.43;;;3.58;;
27796;SDS011;15177;50.844;4.412;2023-09-07T14:41:13;3.88;;;3.17;;
27796;SDS011;15177;50.844;4.412;2023-09-07T14:43:45;11.77;;;4.10;;